Terminal Aerodrome Forecast
Issued by NWS

Home | Current Version | Previous Version | Text Only | Print | Product List | Glossary On
Versions: 1 2 3 4 5 6 7 8 9 10 11 12 13 14 15 16
000
FTUS46 KSEW 180525
TAFCLM
TAF
KCLM 180525Z 1806/1906 07004KT 5SM -RA BR SCT020 OVC060
     FM180900 VRB04KT P6SM -RA BKN020 OVC040
     FM182000 28006KT P6SM -SHRA OVC015=

USA.gov is the U.S. government's official web portal to all federal, state and local government web resources and services.